Time;durP1;ratioP1;P1;durP2;ratioP2;P2;SDS_P1;SDS_P2;PMS_P1;PMS_P2;Temp;Humidity;BMP_temperature;BMP_pressure;BME280_temperature;BME280_humidity;BME280_pressure;Samples;Min_cycle;Max_cycle;Signal;HPM_P1;HPM_P2
2022/06/19 00:00:58;;;;;;;22.45;8.48;;;;;;;15.95;71.20;95410.84;5030794;28;20104;-81
2022/06/19 00:03:47;;;;;;;23.23;9.27;;;;;;;15.95;71.25;95416.09;5023910;28;20025;-80
2022/06/19 00:06:13;;;;;;;23.42;10.02;;;;;;;15.93;71.23;95410.28;5043389;28;20043;-79
2022/06/19 00:08:38;;;;;;;23.98;9.52;;;;;;;15.86;71.42;95417.59;5039520;28;20049;-81
2022/06/19 00:11:04;;;;;;;13.25;7.65;;;;;;;15.81;71.86;95415.72;5033725;28;20067;-81
2022/06/19 00:13:30;;;;;;;16.63;8.98;;;;;;;15.81;71.47;95413.09;5000783;28;20034;-81
2022/06/19 00:15:56;;;;;;;11.68;7.15;;;;;;;15.73;72.03;95423.22;5017824;28;20037;-81
2022/06/19 00:18:21;;;;;;;17.23;6.80;;;;;;;15.72;72.11;95416.41;5014730;28;20045;-80
2022/06/19 00:20:47;;;;;;;18.77;6.05;;;;;;;15.70;72.45;95415.88;4997380;28;20029;-80
2022/06/19 00:23:12;;;;;;;15.40;6.47;;;;;;;15.69;71.91;95415.06;5032416;28;20030;-81
2022/06/19 00:25:38;;;;;;;12.00;5.90;;;;;;;15.69;72.19;95414.28;5019142;28;20033;-80
2022/06/19 00:28:04;;;;;;;15.63;6.13;;;;;;;15.65;71.81;95424.50;5116908;23;20069;-80
2022/06/19 00:30:30;;;;;;;12.38;5.72;;;;;;;15.61;71.88;95418.91;5013822;28;20034;-80
2022/06/19 00:32:57;;;;;;;6.63;5.45;;;;;;;15.63;71.99;95420.53;5026650;28;20034;-79
2022/06/19 00:35:26;;;;;;;9.80;6.18;;;;;;;15.57;71.48;95417.03;5029347;28;20034;-80
2022/06/19 00:37:51;;;;;;;9.27;5.25;;;;;;;15.53;72.37;95419.34;5061739;22;20041;-80
2022/06/19 00:40:17;;;;;;;7.47;4.50;;;;;;;15.50;72.18;95427.72;5028994;28;20032;-80
2022/06/19 00:42:42;;;;;;;12.27;5.35;;;;;;;15.47;72.01;95422.97;5215646;23;20041;-79
2022/06/19 00:45:52;;;;;;;8.90;5.88;;;;;;;15.44;72.25;95412.16;5041449;28;20033;-80
2022/06/19 00:48:32;;;;;;;7.68;5.53;;;;;;;15.41;72.34;95416.09;5021522;28;20061;-80
2022/06/19 00:51:00;;;;;;;8.68;5.57;;;;;;;15.34;72.25;95418.13;5020946;28;20085;-80
2022/06/19 00:53:35;;;;;;;9.40;5.22;;;;;;;15.33;72.46;95419.16;5021165;28;20034;-80
2022/06/19 00:56:00;;;;;;;8.48;5.30;;;;;;;15.25;73.12;95425.59;5021899;28;20040;-80
2022/06/19 00:58:39;;;;;;;9.98;6.18;;;;;;;15.23;72.70;95416.41;5002307;28;20034;-79
2022/06/19 01:01:10;;;;;;;10.80;6.50;;;;;;;15.18;72.98;95413.75;5004334;28;20026;-80
2022/06/19 01:03:44;;;;;;;20.90;6.57;;;;;;;15.16;73.17;95415.81;5021450;28;20089;-79
2022/06/19 01:06:09;;;;;;;9.90;6.00;;;;;;;15.15;72.62;95415.03;5019797;28;20285;-79
2022/06/19 01:08:35;;;;;;;11.00;6.45;;;;;;;15.18;72.99;95408.50;4991109;28;20061;-80
2022/06/19 01:11:00;;;;;;;14.38;5.72;;;;;;;15.08;73.54;95416.25;5024664;28;20030;-80
2022/06/19 01:13:27;;;;;;;6.55;5.55;;;;;;;15.14;73.31;95417.91;5006474;28;20042;-80
2022/06/19 01:15:52;;;;;;;7.18;6.38;;;;;;;15.17;73.19;95412.97;5006351;28;20042;-80
2022/06/19 01:18:21;;;;;;;8.32;6.05;;;;;;;15.18;72.93;95419.00;5020567;28;20076;-79
2022/06/19 01:20:46;;;;;;;10.25;6.00;;;;;;;15.08;73.49;95411.00;5020812;28;20080;-79
2022/06/19 01:23:32;;;;;;;6.85;6.10;;;;;;;15.09;73.73;95420.44;5020184;28;20049;-80
2022/06/19 01:25:58;;;;;;;13.15;6.15;;;;;;;15.06;74.08;95423.56;5021165;28;20038;-79
2022/06/19 01:28:54;;;;;;;9.43;6.22;;;;;;;15.04;74.27;95415.16;5020210;28;20028;-80
2022/06/19 01:31:21;;;;;;;7.75;5.57;;;;;;;14.99;73.66;95406.22;5008086;28;20034;-80
2022/06/19 01:33:48;;;;;;;7.68;5.82;;;;;;;15.00;74.05;95412.25;5009620;28;20034;-80
2022/06/19 01:36:15;;;;;;;7.15;6.10;;;;;;;15.00;73.49;95402.56;5010105;28;20045;-80
2022/06/19 01:38:42;;;;;;;14.38;6.97;;;;;;;14.99;73.47;95411.44;5024842;28;20038;-79
2022/06/19 01:41:13;;;;;;;55.58;9.02;;;;;;;14.92;73.63;95413.44;4992005;28;20034;-80
2022/06/19 01:43:38;;;;;;;19.45;9.73;;;;;;;14.91;73.86;95411.88;5022534;28;20057;-79
2022/06/19 01:46:04;;;;;;;28.25;11.18;;;;;;;14.85;73.54;95412.84;5005989;28;20034;-79
2022/06/19 01:48:30;;;;;;;34.92;11.40;;;;;;;14.83;73.42;95412.31;5005493;28;20053;-79
2022/06/19 01:50:56;;;;;;;19.80;10.48;;;;;;;14.83;73.70;95414.91;5020275;28;20022;-80
2022/06/19 01:53:34;;;;;;;23.45;11.13;;;;;;;14.85;73.37;95412.84;5005791;28;20100;-80
2022/06/19 01:56:00;;;;;;;27.15;10.57;;;;;;;14.83;73.54;95417.53;5020324;28;20034;-79
2022/06/19 01:58:26;;;;;;;15.85;9.15;;;;;;;14.87;73.43;95418.63;5022187;28;20025;-80
2022/06/19 02:00:52;;;;;;;25.90;10.25;;;;;;;14.78;73.55;95420.06;5004419;28;20037;-80
2022/06/19 02:03:39;;;;;;;26.42;10.70;;;;;;;14.81;73.32;95424.84;5020572;28;20508;-80
2022/06/19 02:08:40;;;;;;;30.55;11.15;;;;;;;14.78;73.24;95425.31;5190892;22;20057;-80
2022/06/19 02:11:06;;;;;;;29.10;11.30;;;;;;;14.76;73.92;95427.38;5024769;28;20033;-79
2022/06/19 02:13:34;;;;;;;22.10;10.18;;;;;;;14.78;73.54;95425.31;5006139;28;20041;-80
2022/06/19 02:15:59;;;;;;;24.13;9.68;;;;;;;14.74;73.54;95424.22;5023414;28;20029;-80
2022/06/19 02:18:33;;;;;;;21.92;8.90;;;;;;;14.71;74.36;95424.72;5022872;28;20096;-79
2022/06/19 02:20:59;;;;;;;12.55;6.60;;;;;;;14.81;74.63;95434.53;5022016;28;20083;-79
2022/06/19 02:23:27;;;;;;;18.27;7.97;;;;;;;14.84;73.93;95426.97;5021297;28;20037;-80
2022/06/19 02:25:53;;;;;;;18.20;8.02;;;;;;;14.86;74.07;95426.72;5022158;28;20041;-79
2022/06/19 02:28:18;;;;;;;15.10;9.10;;;;;;;14.80;73.49;95425.06;5077544;22;20721;-80
2022/06/19 02:30:44;;;;;;;16.05;9.65;;;;;;;14.80;73.30;95428.47;5075999;22;20048;-80
2022/06/19 02:33:12;;;;;;;19.65;9.95;;;;;;;14.79;73.04;95432.13;5023909;28;20120;-79
2022/06/19 02:35:37;;;;;;;23.88;11.15;;;;;;;14.78;73.01;95430.53;5012862;28;20044;-79
2022/06/19 02:38:05;;;;;;;22.80;12.85;;;;;;;14.73;73.36;95433.09;5030467;28;20030;-79
2022/06/19 02:40:49;;;;;;;35.60;11.55;;;;;;;14.74;73.06;95439.13;5022740;28;20536;-80
2022/06/19 02:43:18;;;;;;;26.98;10.98;;;;;;;14.67;73.21;95434.09;5048737;28;21027;-81
2022/06/19 02:48:20;;;;;;;22.80;10.45;;;;;;;14.59;73.22;95432.66;5081689;22;20053;-80
2022/06/19 02:50:46;;;;;;;26.17;9.25;;;;;;;14.64;73.94;95439.78;5059262;28;20037;-80
2022/06/19 02:53:15;;;;;;;19.00;9.45;;;;;;;14.68;73.46;95443.53;5117965;23;20088;-79
2022/06/19 02:55:41;;;;;;;19.27;8.73;;;;;;;14.67;73.51;95444.56;5008492;28;20069;-80
2022/06/19 02:58:07;;;;;;;24.00;8.55;;;;;;;14.67;72.95;95444.56;5009141;28;20348;-80
2022/06/19 03:00:32;;;;;;;23.92;8.23;;;;;;;14.69;73.01;95452.97;5050884;23;20075;-80
2022/06/19 03:03:08;;;;;;;33.20;8.85;;;;;;;14.76;72.71;95452.78;5051390;28;20036;-80
2022/06/19 03:07:59;;;;;;;18.80;7.30;;;;;;;14.75;73.15;95451.97;5186516;22;20049;-79
2022/06/19 03:10:30;;;;;;;20.48;7.05;;;;;;;14.77;73.29;95452.53;5052498;28;20036;-78
2022/06/19 03:12:56;;;;;;;15.80;8.07;;;;;;;14.85;72.83;95449.50;5587896;22;20045;-78
2022/06/19 03:15:22;;;;;;;18.75;6.75;;;;;;;14.91;72.38;95453.75;5031770;28;20072;-79
2022/06/19 03:17:47;;;;;;;11.40;6.22;;;;;;;14.99;72.36;95458.59;5026842;28;20084;-81
2022/06/19 03:20:15;;;;;;;22.77;7.72;;;;;;;14.98;72.13;95459.63;5038950;28;20044;-81
2022/06/19 03:22:40;;;;;;;36.75;8.57;;;;;;;14.99;72.18;95453.34;5053717;23;20049;-81
2022/06/19 03:25:06;;;;;;;34.28;9.38;;;;;;;15.05;71.98;95456.03;5010799;28;20030;-81
2022/06/19 03:27:31;;;;;;;28.17;8.98;;;;;;;15.09;72.30;95455.28;4991015;28;20035;-79
2022/06/19 03:29:57;;;;;;;34.88;8.68;;;;;;;15.16;72.21;95457.75;4956783;28;20042;-80
2022/06/19 03:32:22;;;;;;;20.42;8.90;;;;;;;15.24;71.97;95455.47;4973190;28;20026;-80
2022/06/19 03:34:48;;;;;;;35.40;9.68;;;;;;;15.28;72.46;95455.75;4983559;22;21056;-80
2022/06/19 03:37:13;;;;;;;20.90;8.93;;;;;;;15.37;72.45;95459.53;5037623;28;20030;-80
2022/06/19 03:39:39;;;;;;;18.55;9.32;;;;;;;15.46;71.87;95444.97;5039762;28;20508;-80
2022/06/19 03:42:04;;;;;;;30.83;8.85;;;;;;;15.57;71.65;95443.25;5057343;23;20045;-80
2022/06/19 03:44:30;;;;;;;23.75;8.73;;;;;;;15.66;71.53;95443.63;5014472;28;20118;-81
2022/06/19 03:46:55;;;;;;;25.23;8.60;;;;;;;15.76;71.05;95441.88;5009298;28;20065;-80
2022/06/19 03:49:21;;;;;;;17.73;7.35;;;;;;;15.86;70.86;95443.81;4991873;28;20061;-80
2022/06/19 03:51:46;;;;;;;8.00;7.18;;;;;;;15.99;70.24;95440.00;5009757;28;20022;-80
2022/06/19 03:54:12;;;;;;;12.93;7.07;;;;;;;16.12;69.61;95445.63;5096832;23;20112;-79
2022/06/19 03:56:37;;;;;;;23.02;6.95;;;;;;;16.28;68.91;95436.03;5037691;28;20037;-79
2022/06/19 03:59:03;;;;;;;9.82;6.50;;;;;;;16.34;68.66;95439.47;5021062;28;20034;-79
2022/06/19 04:01:35;;;;;;;8.85;7.32;;;;;;;16.57;68.30;95448.78;5009427;28;20029;-80
2022/06/19 04:04:01;;;;;;;9.23;6.30;;;;;;;17.45;66.82;95446.34;5003649;28;20121;-80
2022/06/19 04:06:31;;;;;;;16.25;8.20;;;;;;;19.64;58.65;95438.97;5010956;28;20030;-79
2022/06/19 04:08:57;;;;;;;10.35;7.15;;;;;;;22.00;51.65;95450.31;5027503;28;20040;-79
2022/06/19 04:11:23;;;;;;;16.83;6.95;;;;;;;23.87;46.87;95458.56;5028648;28;20375;-80
2022/06/19 04:13:49;;;;;;;11.57;6.20;;;;;;;25.61;42.20;95450.41;5023140;28;20092;-80
2022/06/19 04:16:28;;;;;;;14.05;4.57;;;;;;;27.10;38.29;95450.75;5006330;28;20037;-79
2022/06/19 04:18:54;;;;;;;15.30;4.95;;;;;;;28.29;35.76;95454.88;5030046;28;20038;-80
2022/06/19 04:21:25;;;;;;;26.52;17.90;;;;;;;29.23;33.61;95447.75;5035116;28;20033;-80
2022/06/19 04:23:54;;;;;;;7.47;2.90;;;;;;;30.45;30.02;95444.84;5026278;28;20576;-80
2022/06/19 04:26:19;;;;;;;8.77;3.60;;;;;;;30.87;30.45;95447.06;5004129;28;20291;-80
2022/06/19 04:28:45;;;;;;;9.18;2.92;;;;;;;31.30;28.54;95438.16;5038187;28;20037;-81
2022/06/19 04:33:41;;;;;;;5.45;2.60;;;;;;;32.81;26.20;95442.81;5168446;23;20056;-80
2022/06/19 04:36:12;;;;;;;9.25;2.60;;;;;;;33.93;24.88;95442.25;5077921;28;20480;-80
2022/06/19 04:38:38;;;;;;;2.78;2.17;;;;;;;34.98;23.48;95440.31;5064155;28;20128;-80
2022/06/19 04:41:03;;;;;;;7.50;2.50;;;;;;;35.54;22.85;95441.94;5063719;28;20044;-80
2022/06/19 04:43:30;;;;;;;13.38;2.13;;;;;;;36.18;21.72;95442.28;5078504;28;20033;-80
2022/06/19 04:46:05;;;;;;;3.15;1.98;;;;;;;35.92;22.20;95442.56;5045938;28;20028;-81
2022/06/19 04:48:31;;;;;;;4.95;2.20;;;;;;;37.08;21.18;95446.00;5028624;28;20040;-81
2022/06/19 04:50:57;;;;;;;2.00;1.83;;;;;;;37.18;20.73;95439.81;5079993;28;20028;-81
2022/06/19 04:53:23;;;;;;;2.80;2.00;;;;;;;37.83;19.65;95436.66;5061452;28;20025;-80
2022/06/19 04:55:48;;;;;;;7.28;2.17;;;;;;;38.58;18.82;95436.38;5078423;28;20041;-80
2022/06/19 04:58:14;;;;;;;2.70;2.08;;;;;;;39.03;18.27;95439.16;5062583;28;20032;-80
2022/06/19 05:00:40;;;;;;;5.68;2.35;;;;;;;39.50;18.30;95447.75;5046145;28;20035;-81
2022/06/19 05:03:05;;;;;;;3.97;2.15;;;;;;;40.55;17.24;95440.78;5079755;28;20124;-78
2022/06/19 05:05:31;;;;;;;4.90;2.28;;;;;;;41.62;15.99;95450.81;5077757;28;20028;-78
2022/06/19 05:07:56;;;;;;;3.33;2.17;;;;;;;41.92;15.59;95452.63;5061533;28;20028;-78
2022/06/19 05:10:22;;;;;;;11.52;2.53;;;;;;;42.41;15.68;95450.09;5077907;28;20047;-80
2022/06/19 05:12:48;;;;;;;5.63;2.08;;;;;;;43.04;14.87;95458.13;5060696;28;20037;-80
2022/06/19 05:15:13;;;;;;;6.22;1.52;;;;;;;43.38;14.34;95447.53;5078375;28;20029;-79
2022/06/19 05:17:39;;;;;;;5.00;1.85;;;;;;;43.82;14.36;95456.19;5027704;28;20021;-79
2022/06/19 05:20:04;;;;;;;5.72;1.98;;;;;;;44.30;14.00;95451.75;5060878;28;20025;-80
2022/06/19 05:22:39;;;;;;;6.82;2.13;;;;;;;44.59;13.85;95452.50;5079042;28;20032;-80
2022/06/19 05:25:08;;;;;;;2.42;1.80;;;;;;;44.87;13.57;95450.84;5046129;28;20033;-80
2022/06/19 05:27:36;;;;;;;4.20;2.30;;;;;;;45.48;13.40;95449.69;5079401;28;20028;-79
2022/06/19 05:30:01;;;;;;;4.85;2.30;;;;;;;45.93;13.02;95450.53;5062854;28;20043;-80
2022/06/19 05:32:27;;;;;;;7.10;1.67;;;;;;;46.21;12.78;95459.75;5061064;28;20037;-81
2022/06/19 05:34:53;;;;;;;5.72;2.08;;;;;;;46.43;12.09;95454.25;5044421;28;20047;-80
2022/06/19 05:37:18;;;;;;;4.82;2.38;;;;;;;46.58;12.13;95449.75;5027567;28;20547;-80
2022/06/19 05:39:44;;;;;;;7.70;2.00;;;;;;;46.43;12.20;95448.75;5061924;28;20025;-79
2022/06/19 05:42:10;;;;;;;7.32;2.25;;;;;;;45.92;12.55;95449.78;5045722;28;20044;-79
2022/06/19 05:44:36;;;;;;;6.93;1.88;;;;;;;46.39;12.21;95445.34;5061735;28;20056;-80
2022/06/19 05:47:02;;;;;;;5.57;2.03;;;;;;;46.44;12.20;95450.28;5060465;28;20024;-80
2022/06/19 05:49:28;;;;;;;4.43;1.95;;;;;;;46.51;12.10;95458.25;5061616;28;20051;-79
2022/06/19 05:51:53;;;;;;;7.28;1.80;;;;;;;46.62;11.90;95456.66;5069140;23;20058;-79
2022/06/19 05:54:19;;;;;;;3.38;1.70;;;;;;;47.02;11.98;95450.38;5038463;28;20416;-79
2022/06/19 05:56:44;;;;;;;2.08;1.52;;;;;;;47.20;11.60;95441.44;5007242;28;20048;-80
2022/06/19 05:59:10;;;;;;;7.03;1.80;;;;;;;47.05;11.83;95448.72;5023613;28;20033;-80
2022/06/19 06:01:35;;;;;;;3.50;1.65;;;;;;;47.04;11.81;95452.69;5004923;28;20038;-80
2022/06/19 06:04:01;;;;;;;6.60;1.95;;;;;;;47.19;12.15;95450.91;5021796;28;20508;-79
2022/06/19 06:06:28;;;;;;;8.05;2.03;;;;;;;47.69;11.59;95443.34;5022654;28;20040;-79
2022/06/19 06:08:54;;;;;;;7.68;1.90;;;;;;;47.48;11.77;95451.25;5007113;28;20022;-79
2022/06/19 06:11:20;;;;;;;2.10;1.70;;;;;;;46.69;12.14;95449.31;5006301;28;20044;-79
2022/06/19 06:13:46;;;;;;;8.55;2.20;;;;;;;47.37;11.50;95450.97;5045621;28;20044;-81
2022/06/19 06:16:12;;;;;;;2.38;1.63;;;;;;;47.11;12.09;95446.91;5052845;28;20121;-79
2022/06/19 06:18:38;;;;;;;4.95;1.50;;;;;;;47.33;11.68;95436.56;4997568;28;20033;-79
2022/06/19 06:21:06;;;;;;;2.55;1.70;;;;;;;47.45;11.83;95446.66;5029912;28;20034;-79
2022/06/19 06:23:32;;;;;;;5.95;2.10;;;;;;;47.65;11.28;95445.47;5046267;28;20089;-79
2022/06/19 06:26:08;;;;;;;4.68;1.83;;;;;;;47.39;11.81;95451.28;5012616;28;20041;-80
2022/06/19 06:28:35;;;;;;;9.63;2.22;;;;;;;47.78;11.50;95441.34;5028827;28;20044;-79
2022/06/19 06:31:01;;;;;;;5.22;1.77;;;;;;;46.87;11.58;95450.22;5027361;28;20104;-79
2022/06/19 06:33:26;;;;;;;4.72;2.35;;;;;;;46.46;11.93;95442.34;5024754;28;20045;-79
2022/06/19 06:35:52;;;;;;;4.75;2.03;;;;;;;46.36;12.01;95445.00;5026837;28;20044;-79
2022/06/19 06:38:17;;;;;;;9.27;2.15;;;;;;;46.09;12.56;95442.13;5027399;28;20041;-79
2022/06/19 06:40:43;;;;;;;4.80;1.80;;;;;;;45.56;12.72;95436.47;5013769;28;20051;-80
2022/06/19 06:43:08;;;;;;;2.33;1.85;;;;;;;45.35;12.91;95428.94;5030135;28;20025;-80
2022/06/19 06:45:34;;;;;;;3.50;1.92;;;;;;;44.73;13.59;95428.53;5045172;28;20037;-79
2022/06/19 06:48:00;;;;;;;9.13;2.20;;;;;;;44.65;13.73;95427.25;5045642;28;20053;-80
2022/06/19 06:50:26;;;;;;;2.50;1.90;;;;;;;44.41;13.73;95432.22;5010994;28;20052;-79
2022/06/19 06:52:52;;;;;;;3.38;1.95;;;;;;;42.52;14.85;95423.34;4992927;28;20029;-80
2022/06/19 06:55:17;;;;;;;4.78;2.05;;;;;;;41.50;15.71;95427.63;5044217;28;20036;-78
2022/06/19 06:57:43;;;;;;;10.32;2.10;;;;;;;40.40;16.55;95421.13;5013833;28;20033;-73
2022/06/19 07:00:09;;;;;;;5.93;2.03;;;;;;;40.65;16.45;95418.03;5028877;28;20578;-74
2022/06/19 07:02:35;;;;;;;4.25;2.00;;;;;;;40.84;17.04;95416.59;4995333;28;20477;-74
2022/06/19 07:05:00;;;;;;;10.77;2.42;;;;;;;40.73;16.52;95411.31;5011778;28;20036;-78
2022/06/19 07:07:26;;;;;;;2.58;2.17;;;;;;;40.91;16.50;95409.09;4995759;28;20602;-74
2022/06/19 07:09:51;;;;;;;11.05;2.10;;;;;;;40.85;17.49;95410.00;5029760;28;20033;-75
2022/06/19 07:12:17;;;;;;;3.83;2.63;;;;;;;40.85;16.71;95402.56;5011873;28;20037;-74
2022/06/19 07:14:42;;;;;;;5.60;2.10;;;;;;;40.13;17.51;95404.69;4995605;28;20180;-75
2022/06/19 07:17:08;;;;;;;6.40;2.50;;;;;;;39.41;17.38;95393.03;4994889;28;20044;-74
2022/06/19 07:19:33;;;;;;;13.63;2.47;;;;;;;38.62;18.18;95399.06;4995194;28;20044;-75
2022/06/19 07:21:59;;;;;;;2.55;2.00;;;;;;;38.02;18.82;95396.63;5029080;28;20037;-74
2022/06/19 07:24:25;;;;;;;6.25;2.90;;;;;;;37.52;19.44;95397.53;5028636;28;20044;-74
2022/06/19 07:26:51;;;;;;;3.85;2.50;;;;;;;37.28;19.81;95406.53;5011766;28;20029;-74
2022/06/19 07:29:17;;;;;;;8.50;2.80;;;;;;;36.78;20.09;95394.84;5012291;28;20049;-77
2022/06/19 07:31:42;;;;;;;10.70;3.05;;;;;;;36.16;20.85;95382.31;5012252;28;20448;-77
2022/06/19 07:34:07;;;;;;;6.45;2.67;;;;;;;35.46;21.62;95383.53;5028751;28;20034;-74
2022/06/19 07:36:33;;;;;;;3.45;2.90;;;;;;;35.02;21.75;95380.91;5029367;28;20033;-76
2022/06/19 07:38:58;;;;;;;7.85;3.28;;;;;;;34.01;22.63;95384.53;4995164;28;20487;-75
2022/06/19 07:41:24;;;;;;;3.25;2.85;;;;;;;33.37;23.63;95383.69;5019506;28;20087;-75
2022/06/19 07:43:51;;;;;;;7.57;2.90;;;;;;;32.91;23.73;95387.56;5029228;28;20039;-75
2022/06/19 07:46:17;;;;;;;7.00;3.20;;;;;;;32.20;25.25;95384.34;5029708;28;20112;-75
2022/06/19 07:51:27;;;;;;;12.52;3.40;;;;;;;31.03;26.63;95383.38;5000391;28;20452;-75
2022/06/19 07:53:52;;;;;;;4.40;2.75;;;;;;;30.73;26.81;95384.94;5011155;28;20029;-75
2022/06/19 07:56:18;;;;;;;4.80;3.50;;;;;;;30.01;27.83;95389.56;5029379;28;20421;-75
2022/06/19 07:58:43;;;;;;;8.63;3.88;;;;;;;29.87;28.83;95385.34;5011426;28;20037;-75
2022/06/19 08:01:09;;;;;;;8.15;3.10;;;;;;;29.63;28.75;95384.66;4995229;28;20052;-75
2022/06/19 08:03:34;;;;;;;10.77;3.25;;;;;;;29.33;29.73;95397.53;4994167;28;20065;-76
2022/06/19 08:06:00;;;;;;;11.45;3.20;;;;;;;27.71;31.53;95395.13;5011247;28;20512;-75
2022/06/19 08:08:26;;;;;;;10.57;2.95;;;;;;;27.66;31.38;95393.44;5011342;28;20030;-75
2022/06/19 08:10:53;;;;;;;6.30;3.35;;;;;;;27.60;32.11;95383.22;4979194;28;20025;-75
2022/06/19 08:13:23;;;;;;;3.65;2.00;;;;;;;27.74;29.04;95384.56;5032493;28;20033;-76
2022/06/19 08:15:53;;;;;;;2.75;1.60;;;;;;;27.90;27.44;95384.75;5014885;28;20072;-75
2022/06/19 08:18:19;;;;;;;9.57;1.92;;;;;;;27.94;26.33;95382.97;4997315;28;20053;-75
2022/06/19 08:20:45;;;;;;;11.43;1.48;;;;;;;27.94;26.84;95377.63;4981889;28;20402;-77
2022/06/19 08:23:10;;;;;;;4.55;1.88;;;;;;;27.80;26.51;95380.56;5013651;28;20041;-75
2022/06/19 08:25:35;;;;;;;1.60;1.50;;;;;;;27.73;26.60;95387.56;5014673;28;20467;-76
2022/06/19 08:28:01;;;;;;;6.78;1.70;;;;;;;27.64;26.43;95389.50;5014443;28;20051;-76
2022/06/19 08:30:30;;;;;;;6.03;1.42;;;;;;;27.66;27.05;95381.94;4981798;28;20065;-76
2022/06/19 08:32:56;;;;;;;2.65;1.35;;;;;;;27.52;26.36;95376.84;5013800;28;20116;-77
2022/06/19 08:35:21;;;;;;;2.22;1.55;;;;;;;27.64;26.31;95389.50;5013938;28;20029;-76
2022/06/19 08:37:50;;;;;;;1.80;1.40;;;;;;;27.50;26.25;95379.84;5001860;28;20429;-75
2022/06/19 08:40:34;;;;;;;1.40;1.25;;;;;;;27.38;25.97;95379.78;4981128;28;20037;-74
2022/06/19 08:43:21;;;;;;;1.50;1.40;;;;;;;27.43;26.42;95373.44;5031225;28;20106;-74
2022/06/19 08:45:52;;;;;;;4.43;1.33;;;;;;;27.11;25.88;95388.25;5031307;28;20034;-75
2022/06/19 08:48:37;;;;;;;6.32;1.25;;;;;;;26.83;26.73;95369.97;5030400;28;20132;-75
2022/06/19 08:51:12;;;;;;;7.68;1.45;;;;;;;26.84;27.28;95362.75;5015417;28;20065;-74
2022/06/19 08:54:04;;;;;;;1.65;1.30;;;;;;;26.81;27.02;95368.75;5015414;28;20037;-74
2022/06/19 08:57:04;;;;;;;1.38;1.27;;;;;;;26.54;26.56;95364.63;5016618;28;20064;-73
2022/06/19 08:59:52;;;;;;;4.68;1.40;;;;;;;26.16;26.05;95359.97;5014045;28;20139;-75
2022/06/19 09:02:51;;;;;;;1.73;1.17;;;;;;;25.81;27.16;95375.25;5028685;28;20030;-75
2022/06/19 09:05:47;;;;;;;1.77;1.30;;;;;;;26.01;28.65;95368.47;5031015;28;20037;-75
2022/06/19 09:08:21;;;;;;;3.15;1.75;;;;;;;26.13;28.28;95368.63;5031179;28;20084;-75
2022/06/19 09:10:51;;;;;;;1.58;1.35;;;;;;;26.19;27.49;95359.34;5031414;28;20037;-75
2022/06/19 09:13:35;;;;;;;2.40;1.40;;;;;;;26.25;27.06;95363.44;5031592;28;20029;-75
2022/06/19 09:16:07;;;;;;;3.53;1.50;;;;;;;26.11;27.26;95362.81;5031885;28;20037;-75
2022/06/19 09:18:42;;;;;;;2.47;1.17;;;;;;;25.94;27.05;95370.84;4999723;28;20033;-77
2022/06/19 09:21:10;;;;;;;3.92;1.52;;;;;;;25.79;27.89;95353.47;5000447;28;20445;-77
2022/06/19 09:24:00;;;;;;;3.05;1.30;;;;;;;25.46;28.12;95361.13;5037294;28;20029;-85
2022/06/19 09:26:52;;;;;;;6.20;1.40;;;;;;;25.52;28.14;95351.09;5019005;28;20064;-83
2022/06/19 09:29:19;;;;;;;1.98;1.10;;;;;;;25.65;27.94;95340.28;5006161;28;20045;-83
2022/06/19 09:31:49;;;;;;;5.13;1.40;;;;;;;25.81;28.58;95350.47;5014712;28;20037;-85
2022/06/19 09:34:25;;;;;;;2.67;1.23;;;;;;;25.65;28.02;95355.47;5023465;28;20045;-82
2022/06/19 09:36:54;;;;;;;4.65;1.40;;;;;;;25.52;28.67;95333.22;5022731;28;20037;-85
2022/06/19 09:39:47;;;;;;;1.10;1.00;;;;;;;25.67;27.96;95327.41;5037656;28;20030;-87
2022/06/19 09:42:35;;;;;;;2.65;1.33;;;;;;;25.64;29.15;95344.03;5018786;28;20038;-81
2022/06/19 09:45:05;;;;;;;1.90;1.42;;;;;;;25.51;28.24;95342.31;5017051;28;20026;-81
2022/06/19 09:47:57;;;;;;;1.23;1.17;;;;;;;25.63;28.16;95342.47;5017726;28;20037;-81
2022/06/19 09:50:32;;;;;;;1.75;1.48;;;;;;;25.73;29.61;95334.19;5031620;28;20124;-81
2022/06/19 09:53:13;;;;;;;2.85;1.50;;;;;;;25.79;29.48;95334.81;4987555;28;20026;-81
2022/06/19 09:56:12;;;;;;;1.30;1.20;;;;;;;25.73;27.87;95342.19;5035276;28;20045;-81
2022/06/19 09:58:51;;;;;;;1.83;1.23;;;;;;;25.76;27.57;95332.00;5006826;28;20045;-81
2022/06/19 10:01:17;;;;;;;6.07;1.30;;;;;;;25.99;27.72;95331.50;5019085;28;20040;-81
2022/06/19 10:03:50;;;;;;;1.33;0.95;;;;;;;25.85;27.77;95333.53;5005073;28;20033;-81
2022/06/19 10:06:20;;;;;;;1.42;1.33;;;;;;;25.87;27.83;95320.72;4991435;28;20041;-82
2022/06/19 10:08:54;;;;;;;1.48;1.00;;;;;;;26.03;26.84;95318.31;5023072;28;20183;-79
2022/06/19 10:11:28;;;;;;;2.15;1.30;;;;;;;26.11;26.23;95325.50;5008019;28;20071;-78
2022/06/19 10:14:06;;;;;;;1.52;1.00;;;;;;;26.02;26.33;95317.53;4991735;28;20061;-79
2022/06/19 10:16:51;;;;;;;3.80;1.50;;;;;;;26.01;26.86;95317.84;5016212;28;20040;-79
2022/06/19 10:19:31;;;;;;;2.58;1.40;;;;;;;25.95;27.18;95311.13;5024246;28;20029;-79
2022/06/19 10:22:15;;;;;;;2.92;1.25;;;;;;;25.70;26.08;95305.50;5020727;28;20037;-78
2022/06/19 10:25:18;;;;;;;1.95;1.27;;;;;;;25.51;27.20;95304.25;5031069;28;20432;-77
2022/06/19 10:27:52;;;;;;;1.67;1.20;;;;;;;25.63;27.89;95307.06;5034090;28;20033;-77
2022/06/19 10:30:22;;;;;;;5.00;1.20;;;;;;;25.68;27.68;95309.59;5017159;28;20116;-77
2022/06/19 10:32:56;;;;;;;5.93;1.33;;;;;;;25.64;27.56;95296.09;5000422;28;20053;-78
2022/06/19 10:35:48;;;;;;;3.22;1.35;;;;;;;25.73;27.50;95307.56;5032481;28;20089;-79
2022/06/19 10:38:29;;;;;;;2.45;0.93;;;;;;;25.86;26.51;95297.03;5017157;28;20039;-77
2022/06/19 10:41:01;;;;;;;2.60;1.10;;;;;;;25.91;26.48;95304.88;5034856;28;20038;-77
2022/06/19 10:43:32;;;;;;;1.52;1.05;;;;;;;25.84;25.49;95307.22;5017750;28;20447;-79
2022/06/19 10:45:58;;;;;;;5.35;1.23;;;;;;;25.90;25.95;95308.63;5036405;28;20401;-79
2022/06/19 10:48:28;;;;;;;8.45;1.23;;;;;;;26.00;25.97;95310.94;5003781;28;20064;-79
2022/06/19 10:51:12;;;;;;;2.42;1.17;;;;;;;25.97;26.46;95299.03;5020788;28;20033;-79
2022/06/19 10:53:40;;;;;;;10.25;1.20;;;;;;;25.91;26.14;95299.53;5043370;23;20102;-77
2022/06/19 10:56:28;;;;;;;2.92;1.02;;;;;;;26.03;25.92;95296.97;5049994;28;20094;-77
2022/06/19 10:58:54;;;;;;;3.20;1.23;;;;;;;26.20;26.29;95299.63;5034324;28;20064;-78
2022/06/19 11:04:10;;;;;;;2.15;0.93;;;;;;;25.81;26.51;95289.22;5036039;28;20420;-76
2022/06/19 11:06:51;;;;;;;12.88;7.82;;;;;;;25.76;26.49;95289.38;5032493;28;20033;-74
2022/06/19 11:09:22;;;;;;;4.65;2.17;;;;;;;25.87;26.53;95282.59;5047501;28;20128;-75
2022/06/19 11:11:48;;;;;;;2.22;1.20;;;;;;;25.94;27.36;95282.91;5048292;28;20093;-75
2022/06/19 11:14:27;;;;;;;1.90;1.42;;;;;;;25.97;26.72;95282.28;5027109;28;20637;-75
2022/06/19 11:17:00;;;;;;;1.38;1.27;;;;;;;26.16;26.32;95276.56;5028456;28;20035;-76
2022/06/19 11:19:37;;;;;;;3.95;1.30;;;;;;;25.67;26.73;95278.69;5044958;28;20028;-76
2022/06/19 11:22:05;;;;;;;13.30;1.25;;;;;;;25.69;25.66;95271.97;5047875;28;20037;-76
2022/06/19 11:24:32;;;;;;;8.57;1.30;;;;;;;25.68;25.49;95265.09;5013847;28;20029;-77
2022/06/19 11:26:58;;;;;;;1.33;1.10;;;;;;;25.69;25.52;95271.97;5014565;28;20551;-76
2022/06/19 11:29:24;;;;;;;1.05;0.90;;;;;;;25.83;25.42;95260.38;5013503;28;20120;-77
2022/06/19 11:32:11;;;;;;;5.97;1.67;;;;;;;25.74;26.41;95263.06;5033320;28;20029;-77
2022/06/19 11:34:51;;;;;;;2.95;1.10;;;;;;;25.67;26.46;95260.84;5030547;28;20029;-77
2022/06/19 11:37:28;;;;;;;1.50;1.40;;;;;;;25.76;26.35;95258.19;5047668;28;20142;-76
2022/06/19 11:39:59;;;;;;;1.38;1.13;;;;;;;25.87;25.98;95255.97;5031046;28;20040;-77
2022/06/19 11:42:38;;;;;;;3.40;1.13;;;;;;;25.98;26.08;95257.19;5049855;28;20504;-76
2022/06/19 11:45:21;;;;;;;9.00;1.35;;;;;;;25.81;25.71;95265.22;5030893;28;20045;-76
2022/06/19 11:47:54;;;;;;;2.40;0.93;;;;;;;25.73;25.18;95251.63;5030709;28;20106;-77
2022/06/19 11:50:22;;;;;;;1.70;1.00;;;;;;;25.84;25.15;95245.94;5031616;28;20095;-76
2022/06/19 11:52:47;;;;;;;5.65;0.90;;;;;;;25.99;24.68;95237.44;5006188;28;20033;-79
2022/06/19 16:10:33;;;;;;;7.50;1.70;;;;;;;24.51;33.30;95085.13;5053650;28;20071;-78
2022/06/19 16:13:36;;;;;;;3.30;1.77;;;;;;;24.65;33.03;95078.88;5046742;28;20127;-77